Waycross, GA (31501)

3:50 PM EDT on October 25, 2014 (GMT -0400)
Waycross-Ware County | Change Station
CLOSE
Current Station
Airport
Location: Waycross,
Elevation: 151 ft
Nearby Weather Stations

Elev 151 ft 31.25 °N, 82.40 °W | Updated 15 minutes ago

Clear
Clear
80 °F
Feels Like 80 °F
N
0
Wind Variable Wind from North

Today
High -- | Low -- °F
--% Chance of Precip.
Yesterday
High -- | Low -- °F
Precip. -- in
7:39 AM 6:47 PM
Waxing Crescent, 4% visible
Pressure 29.97 in
Visibility 10.0 miles
Clouds Clear
Dew Point 50 °F
Humidity 35%
Rainfall 0.00 in
Snow Depth Not available.
UV 4 out of 12
Pollen 4.70 out of 12
Air Quality Not available.
Flu Activity Sporadic
METAR KAYS 251935Z AUTO 00000KT 10SM CLR 27/10 A2997 RMK AO2 T02660099

More Conditions Fewer Conditions

Pressure 29.97 in
Visibility 10.0 miles
Clouds Clear
Dew Point 50 °F
Humidity 35%
Rainfall 0.00 in
Snow Depth Not available.
UV 4 out of 12
Pollen 4.70 out of 12
Air Quality Not available.
Flu Activity Sporadic
METAR KAYS 251935Z AUTO 00000KT 10SM CLR 27/10 A2997 RMK AO2 T02660099

More Conditions Fewer Conditions

10-Day Weather Forecast

Almanac

Astronomy

Oct. 25, 2014 Rise Set
Actual Time 7:39 AM EDT 6:47 PM EDT
Civil Twilight 7:14 AM EDT 7:11 PM EDT
Nautical Twilight 6:46 AM EDT 7:40 PM EDT
Astronomical Twilight 6:18 AM EDT 8:08 PM EDT
Moon 9:12 AM EDT 8:14 PM EDT
Length of Visible Light 11h 57m
Length of Day
11h 07m
Tomorrow will be 1m 44s shorter.
Waxing Crescent, 4% of the Moon is Illuminated
Today
Waxing Crescent
Oct 30
First Quarter
Nov 6
Full
Nov 14
Last Quarter
Nov 22
New

Today's Extremes

State Highs State Lows

Community

WunderPhotos

Upload Photos

1,764,972 photos uploaded!

Nearby

Snow Depth

Station Depth Elevation
No new snow has been reported.

Earthquake Activity

City Distance Mag. Time & Date
No recent earthquake activity has been reported nearby.
Minimum magnitude displayed is 2.5.

Coastal Water Temperatures

Place Temperature
No Stations Reporting

Nearby Weather Stations